Terminal Aerodrome Forecast
Issued by NWS Sterling, VA

Home | Current Version | Previous Version | Text Only | Print | Product List | Glossary On
Versions: 1 2 3 4 5 6 7 8 9 10 11 12 13 14 15 16 17 18 19 20 21 22
787
FTUS41 KLWX 251140
TAFIAD
TAF
KIAD 251140Z 2512/2618 15010KT P6SM BKN015
     FM251400 18012G20KT P6SM BKN060
     FM251800 24015G24KT 5SM -TSRA OVC045CB
     FM252000 30016G28KT P6SM OVC050
     FM260000 30018G31KT P6SM SCT250
     FM260900 28011G18KT P6SM SCT040=

USA.gov is the U.S. government's official web portal to all federal, state and local government web resources and services.